createdAt,value
2022-09-30T00:02:38.161Z,1.60
2022-09-30T00:05:17.592Z,1.70
2022-09-30T00:11:24.225Z,1.87
2022-09-30T00:13:58.930Z,1.70
2022-09-30T00:16:32.067Z,1.70
2022-09-30T00:19:03.463Z,1.53
2022-09-30T00:21:37.890Z,1.67
2022-09-30T00:24:09.081Z,1.67
2022-09-30T00:26:43.858Z,1.70
2022-09-30T00:29:15.199Z,1.83
2022-09-30T00:31:46.944Z,1.70
2022-09-30T00:34:28.149Z,1.80
2022-09-30T00:37:13.255Z,1.73
2022-09-30T00:39:59.708Z,1.70
2022-09-30T00:42:43.620Z,1.37
2022-09-30T00:45:16.942Z,1.30
2022-09-30T00:48:23.822Z,1.37
2022-09-30T00:51:06.090Z,1.67
2022-09-30T00:54:06.767Z,1.70
2022-09-30T00:57:04.766Z,1.40
2022-09-30T01:00:03.292Z,1.37
2022-09-30T01:02:52.370Z,1.60
2022-09-30T01:05:20.292Z,1.50
2022-09-30T01:08:04.591Z,1.90
2022-09-30T01:10:38.158Z,1.50
2022-09-30T01:13:11.967Z,1.13
2022-09-30T01:16:23.074Z,1.50
2022-09-30T01:20:03.732Z,1.50
2022-09-30T01:23:00.275Z,1.30
2022-09-30T01:29:11.001Z,1.67
2022-09-30T01:32:13.423Z,1.50
2022-09-30T01:35:12.601Z,1.50
2022-09-30T01:38:06.342Z,1.30
2022-09-30T01:41:22.182Z,1.30
2022-09-30T01:44:05.142Z,1.17
2022-09-30T01:47:00.110Z,1.10
2022-09-30T01:49:45.384Z,1.17
2022-09-30T01:52:47.047Z,1.40
2022-09-30T01:55:50.377Z,1.20
2022-09-30T01:58:50.689Z,1.50
2022-09-30T02:01:30.694Z,1.40
2022-09-30T02:04:21.044Z,1.30
2022-09-30T02:07:15.064Z,1.33
2022-09-30T02:10:08.880Z,1.20
2022-09-30T02:12:50.445Z,1.10
2022-09-30T02:15:32.488Z,1.20
2022-09-30T02:18:34.502Z,1.10
2022-09-30T02:21:32.560Z,1.67
2022-09-30T02:24:34.359Z,1.33
2022-09-30T02:27:14.568Z,1.30
2022-09-30T02:30:09.869Z,1.40
2022-09-30T02:33:03.625Z,1.47
2022-09-30T02:35:39.352Z,1.53
2022-09-30T02:38:22.755Z,1.67
2022-09-30T02:41:22.743Z,1.90
2022-09-30T02:43:53.586Z,1.50
2022-09-30T02:46:33.080Z,1.90
2022-09-30T02:49:40.856Z,1.97
2022-09-30T02:52:17.945Z,2.70
2022-09-30T02:55:06.428Z,2.03
2022-09-30T02:58:11.739Z,2.30
2022-09-30T03:01:11.563Z,2.27
2022-09-30T03:03:53.157Z,2.37
2022-09-30T03:07:01.097Z,2.40
2022-09-30T03:09:55.015Z,2.47
2022-09-30T03:12:43.156Z,2.30
2022-09-30T03:15:43.691Z,2.03
2022-09-30T03:18:26.148Z,2.00
2022-09-30T03:21:09.424Z,1.90
2022-09-30T03:23:57.542Z,1.80
2022-09-30T03:26:44.918Z,1.70
2022-09-30T03:29:43.488Z,2.30
2022-09-30T03:33:00.078Z,1.70
2022-09-30T03:35:44.103Z,2.10
2022-09-30T03:38:24.055Z,2.07
2022-09-30T03:41:07.320Z,2.20
2022-09-30T03:43:45.215Z,2.23
2022-09-30T03:46:21.703Z,1.80
2022-09-30T03:49:09.087Z,2.50
2022-09-30T03:51:48.952Z,2.30
2022-09-30T03:54:50.785Z,2.27
2022-09-30T03:57:21.352Z,2.20
2022-09-30T04:00:03.011Z,2.40
2022-09-30T04:02:32.973Z,2.53
2022-09-30T04:05:24.839Z,2.47
2022-09-30T04:07:55.897Z,2.47
2022-09-30T04:10:40.818Z,2.57
2022-09-30T04:13:23.357Z,2.90
2022-09-30T04:16:14.999Z,2.50
2022-09-30T04:18:53.079Z,2.80
2022-09-30T04:21:31.382Z,2.97
2022-09-30T04:24:20.675Z,2.63
2022-09-30T04:27:08.319Z,2.53
2022-09-30T04:32:28.159Z,2.33
2022-09-30T04:35:10.857Z,2.70
2022-09-30T04:37:49.271Z,2.63
2022-09-30T04:40:38.387Z,3.23
2022-09-30T04:43:12.631Z,2.73
2022-09-30T04:45:57.107Z,2.80
2022-09-30T04:48:39.672Z,2.90
2022-09-30T04:51:08.132Z,2.97
2022-09-30T04:53:45.050Z,2.77
2022-09-30T04:56:16.926Z,2.97
2022-09-30T04:58:49.950Z,3.00
2022-09-30T05:01:23.285Z,3.00
2022-09-30T05:04:03.300Z,2.63
2022-09-30T05:06:38.994Z,3.03
2022-09-30T05:09:21.744Z,2.83
2022-09-30T05:11:58.941Z,3.27
2022-09-30T05:14:35.477Z,3.07
2022-09-30T05:17:23.583Z,3.20
2022-09-30T05:20:21.224Z,3.30
2022-09-30T05:22:57.432Z,2.70
2022-09-30T05:26:13.067Z,2.47
2022-09-30T05:29:13.010Z,2.80
2022-09-30T05:31:51.016Z,3.00
2022-09-30T05:34:36.855Z,2.87
2022-09-30T05:37:26.100Z,2.63
2022-09-30T05:40:11.075Z,2.87
2022-09-30T05:42:54.818Z,2.97
2022-09-30T05:45:24.632Z,3.17
2022-09-30T05:48:13.053Z,3.07
2022-09-30T05:50:57.205Z,2.87
2022-09-30T05:53:42.711Z,2.73
2022-09-30T05:56:40.496Z,3.00
2022-09-30T05:59:17.721Z,2.90
2022-09-30T06:02:01.201Z,2.93
2022-09-30T06:04:43.597Z,2.77
2022-09-30T06:07:14.537Z,3.07
2022-09-30T06:09:53.718Z,3.13
2022-09-30T06:12:32.019Z,3.20
2022-09-30T06:15:03.905Z,2.77
2022-09-30T06:17:36.777Z,3.20
2022-09-30T06:20:23.831Z,3.00
2022-09-30T06:22:55.292Z,3.10
2022-09-30T06:25:42.086Z,2.70
2022-09-30T06:28:23.604Z,2.90
2022-09-30T06:31:23.756Z,2.90
2022-09-30T06:36:55.154Z,2.63
2022-09-30T06:39:33.738Z,2.87
2022-09-30T06:42:12.068Z,2.70
2022-09-30T06:44:52.751Z,2.90
2022-09-30T06:47:34.107Z,2.80
2022-09-30T06:50:09.054Z,2.70
2022-09-30T06:52:50.707Z,2.83
2022-09-30T06:55:37.225Z,3.63
2022-09-30T06:58:21.786Z,2.80
2022-09-30T07:01:10.748Z,3.40
2022-09-30T07:03:54.658Z,3.30
2022-09-30T07:06:35.558Z,3.70
2022-09-30T07:09:12.794Z,2.87
2022-09-30T07:11:44.606Z,2.73
2022-09-30T07:14:27.092Z,2.50
2022-09-30T07:16:57.903Z,2.93
2022-09-30T07:19:44.441Z,3.00
2022-09-30T07:22:40.798Z,3.00
2022-09-30T07:25:23.255Z,3.03
2022-09-30T07:27:56.422Z,2.83
2022-09-30T07:30:47.722Z,3.20
2022-09-30T07:33:32.536Z,3.37
2022-09-30T07:36:17.738Z,2.87
2022-09-30T07:38:54.461Z,2.50
2022-09-30T07:41:54.901Z,3.20
2022-09-30T07:44:42.180Z,3.10
2022-09-30T07:47:24.446Z,2.67
2022-09-30T07:50:14.868Z,2.60
2022-09-30T07:53:13.800Z,3.03
2022-09-30T07:55:54.493Z,2.60
2022-09-30T07:58:42.003Z,2.43
2022-09-30T08:01:42.478Z,2.70
2022-09-30T08:04:12.678Z,2.23
2022-09-30T08:07:00.239Z,2.30
2022-09-30T08:09:32.379Z,2.47
2022-09-30T08:12:03.724Z,2.17
2022-09-30T08:14:31.478Z,2.03
2022-09-30T08:17:06.526Z,1.93
2022-09-30T08:19:37.793Z,1.50
2022-09-30T08:22:26.372Z,1.47
2022-09-30T08:24:56.675Z,1.70
2022-09-30T08:27:24.646Z,2.00
2022-09-30T08:30:04.760Z,1.97
2022-09-30T08:32:36.399Z,1.40
2022-09-30T08:35:15.940Z,1.33
2022-09-30T08:38:00.348Z,1.20
2022-09-30T08:41:13.028Z,1.30
2022-09-30T08:44:04.479Z,1.50
2022-09-30T08:46:44.334Z,1.20
2022-09-30T08:49:33.732Z,0.93
2022-09-30T08:52:06.451Z,0.80
2022-09-30T08:55:06.456Z,0.90
2022-09-30T08:58:12.520Z,0.80
2022-09-30T09:01:16.508Z,0.60
2022-09-30T09:04:03.879Z,0.70
2022-09-30T09:07:17.180Z,0.67
2022-09-30T09:10:04.314Z,0.50
2022-09-30T09:12:54.682Z,0.80
2022-09-30T09:15:39.146Z,0.80
2022-09-30T09:19:24.491Z,0.67
2022-09-30T09:22:02.513Z,0.77
2022-09-30T09:25:05.423Z,1.00
2022-09-30T09:28:05.717Z,1.00
2022-09-30T09:30:56.233Z,0.90
2022-09-30T09:33:57.046Z,0.97
2022-09-30T09:37:04.064Z,0.90
2022-09-30T09:40:08.796Z,0.90
2022-09-30T09:42:54.969Z,0.70
2022-09-30T09:46:17.341Z,0.80
2022-09-30T09:48:56.732Z,1.00
2022-09-30T09:51:34.231Z,0.80
2022-09-30T09:54:20.871Z,0.77
2022-09-30T10:00:03.778Z,0.97
2022-09-30T10:02:48.992Z,1.20
2022-09-30T10:05:42.778Z,1.10
2022-09-30T10:08:24.988Z,1.30
2022-09-30T10:11:07.148Z,1.00
2022-09-30T10:14:10.427Z,1.07
2022-09-30T10:16:56.292Z,1.20
2022-09-30T10:19:53.433Z,1.40
2022-09-30T10:22:52.764Z,1.23
2022-09-30T10:25:47.239Z,1.30
2022-09-30T10:29:04.170Z,1.30
2022-09-30T10:31:38.307Z,1.23
2022-09-30T10:34:25.781Z,1.50
2022-09-30T10:36:55.896Z,1.70
2022-09-30T10:39:28.564Z,1.63
2022-09-30T10:42:04.653Z,1.87
2022-09-30T10:44:35.582Z,1.70
2022-09-30T10:47:09.186Z,1.63
2022-09-30T10:49:47.344Z,1.57
2022-09-30T10:52:24.097Z,1.60
2022-09-30T10:54:57.451Z,1.80
2022-09-30T10:57:47.300Z,1.80
2022-09-30T11:00:26.684Z,1.80
2022-09-30T11:03:08.402Z,1.73
2022-09-30T11:08:56.595Z,2.23
2022-09-30T11:11:34.669Z,1.87
2022-09-30T11:14:19.152Z,1.97
2022-09-30T11:17:22.580Z,2.03
2022-09-30T11:20:16.607Z,1.90
2022-09-30T11:22:56.734Z,1.67
2022-09-30T11:25:37.829Z,1.50
2022-09-30T11:28:40.951Z,1.80
2022-09-30T11:31:33.092Z,1.47
2022-09-30T11:34:24.002Z,1.50
2022-09-30T11:37:12.495Z,1.20
2022-09-30T11:40:28.843Z,1.10
2022-09-30T11:43:36.911Z,1.23
2022-09-30T11:46:34.899Z,0.87
2022-09-30T11:49:49.271Z,1.20
2022-09-30T11:52:34.408Z,1.40
2022-09-30T11:55:54.947Z,1.77
2022-09-30T11:58:43.067Z,1.40
2022-09-30T12:02:09.718Z,1.60
2022-09-30T12:04:47.206Z,1.37
2022-09-30T12:07:35.617Z,1.73
2022-09-30T12:10:16.563Z,1.60
2022-09-30T12:12:54.376Z,2.23
2022-09-30T12:15:37.674Z,1.70
2022-09-30T12:18:36.923Z,1.67
2022-09-30T12:21:18.317Z,1.77
2022-09-30T12:23:54.342Z,1.43
2022-09-30T12:26:25.999Z,1.70
2022-09-30T12:29:23.484Z,1.60
2022-09-30T12:32:29.387Z,1.40
2022-09-30T12:35:18.016Z,1.50
2022-09-30T12:38:00.448Z,1.20
2022-09-30T12:40:52.208Z,1.20
2022-09-30T12:43:47.374Z,1.07
2022-09-30T12:46:48.575Z,1.33
2022-09-30T12:49:27.630Z,1.33
2022-09-30T12:51:59.283Z,1.23
2022-09-30T12:54:50.974Z,1.00
2022-09-30T13:00:38.217Z,1.10
2022-09-30T13:03:31.340Z,1.17
2022-09-30T13:06:21.023Z,0.90
2022-09-30T13:11:48.900Z,1.00
2022-09-30T13:14:41.366Z,0.90
2022-09-30T13:17:47.007Z,1.00
2022-09-30T13:21:06.895Z,0.90
2022-09-30T13:24:07.205Z,0.90
2022-09-30T13:26:49.687Z,0.83
2022-09-30T13:29:56.960Z,1.00
2022-09-30T13:32:37.312Z,1.00
2022-09-30T13:35:55.089Z,1.30
2022-09-30T13:38:55.636Z,1.47
2022-09-30T13:42:10.571Z,1.53
2022-09-30T13:45:08.756Z,1.20
2022-09-30T13:48:09.143Z,1.53
2022-09-30T13:51:09.848Z,1.73
2022-09-30T13:53:53.138Z,1.63
2022-09-30T13:56:46.798Z,1.60
2022-09-30T13:59:48.132Z,1.27
2022-09-30T14:02:58.183Z,1.57
2022-09-30T14:05:57.576Z,1.63
2022-09-30T14:09:12.597Z,1.40
2022-09-30T14:12:16.653Z,1.70
2022-09-30T14:15:28.678Z,1.87
2022-09-30T14:18:23.322Z,1.90
2022-09-30T14:21:18.091Z,1.90
2022-09-30T14:24:11.786Z,1.83
2022-09-30T14:27:20.949Z,1.77
2022-09-30T14:30:20.422Z,1.90
2022-09-30T14:32:58.510Z,2.03
2022-09-30T14:35:35.745Z,2.23
2022-09-30T14:38:16.363Z,2.47
2022-09-30T14:41:02.222Z,1.87
2022-09-30T14:43:42.529Z,2.10
2022-09-30T14:46:47.267Z,2.07
2022-09-30T14:49:34.512Z,1.90
2022-09-30T14:52:14.151Z,2.60
2022-09-30T14:54:54.043Z,2.53
2022-09-30T14:57:32.256Z,2.40
2022-09-30T15:00:33.768Z,2.57
2022-09-30T15:03:17.071Z,2.40
2022-09-30T15:05:52.933Z,2.50
2022-09-30T15:08:29.749Z,2.67
2022-09-30T15:11:08.616Z,2.27
2022-09-30T15:13:43.334Z,2.63
2022-09-30T15:16:28.153Z,2.50
2022-09-30T15:19:07.834Z,2.23
2022-09-30T15:21:48.516Z,2.37
2022-09-30T15:24:35.331Z,2.40
2022-09-30T15:27:28.949Z,2.33
2022-09-30T15:32:51.389Z,1.80
2022-09-30T15:35:27.917Z,1.80
2022-09-30T15:38:18.405Z,1.70
2022-09-30T15:40:53.140Z,2.20
2022-09-30T15:43:40.930Z,2.30
2022-09-30T15:46:58.359Z,1.40
2022-09-30T15:49:50.811Z,1.43
2022-09-30T15:52:38.832Z,1.70
2022-09-30T15:55:49.104Z,1.77
2022-09-30T15:58:39.116Z,1.60
2022-09-30T16:01:24.769Z,1.40
2022-09-30T16:04:25.220Z,1.60
2022-09-30T16:07:02.712Z,1.33
2022-09-30T16:09:37.633Z,1.50
2022-09-30T16:12:21.023Z,1.43
2022-09-30T16:14:57.941Z,1.40
2022-09-30T16:17:27.912Z,0.90
2022-09-30T16:20:08.002Z,1.60
2022-09-30T16:25:52.797Z,1.17
2022-09-30T16:28:27.363Z,1.40
2022-09-30T16:31:09.052Z,1.27
2022-09-30T16:33:48.908Z,1.13
2022-09-30T16:36:25.314Z,0.97
2022-09-30T16:38:57.544Z,1.33
2022-09-30T16:41:29.891Z,1.30
2022-09-30T16:44:01.596Z,1.30
2022-09-30T16:46:45.588Z,1.20
2022-09-30T16:49:21.494Z,1.40
2022-09-30T16:51:50.336Z,1.20
2022-09-30T16:54:21.819Z,1.43
2022-09-30T16:57:00.926Z,1.30
2022-09-30T16:59:35.920Z,1.40
2022-09-30T17:02:18.900Z,1.60
2022-09-30T17:04:57.981Z,1.60
2022-09-30T17:07:33.657Z,1.60
2022-09-30T17:10:08.817Z,1.40
2022-09-30T17:13:08.394Z,1.17
2022-09-30T17:15:51.678Z,1.60
2022-09-30T17:18:34.165Z,1.27
2022-09-30T17:21:09.244Z,2.30
2022-09-30T17:23:43.715Z,1.70
2022-09-30T17:26:23.594Z,1.60
2022-09-30T17:29:00.297Z,1.83
2022-09-30T17:31:39.529Z,1.90
2022-09-30T17:34:12.046Z,1.70
2022-09-30T17:36:57.197Z,1.60
2022-09-30T17:39:31.220Z,1.80
2022-09-30T17:42:19.152Z,1.83
2022-09-30T17:44:52.373Z,1.80
2022-09-30T17:47:24.900Z,1.80
2022-09-30T17:50:08.709Z,2.00
2022-09-30T17:52:40.256Z,1.90
2022-09-30T17:55:08.473Z,1.83
2022-09-30T17:57:39.963Z,1.80
2022-09-30T18:00:17.892Z,1.43
2022-09-30T18:02:51.333Z,1.63
2022-09-30T18:05:20.282Z,1.40
2022-09-30T18:07:53.972Z,1.50
2022-09-30T18:10:28.231Z,1.20
2022-09-30T18:12:58.265Z,1.50
2022-09-30T18:15:39.008Z,1.67
2022-09-30T18:18:09.454Z,1.30
2022-09-30T18:20:48.989Z,1.40
2022-09-30T18:23:19.510Z,1.20
2022-09-30T18:25:49.768Z,1.47
2022-09-30T18:28:18.687Z,1.47
2022-09-30T18:31:16.489Z,1.20
2022-09-30T18:33:51.565Z,1.23
2022-09-30T18:36:21.991Z,1.30
2022-09-30T18:38:53.921Z,1.53
2022-09-30T18:41:35.787Z,1.30
2022-09-30T18:44:15.791Z,1.40
2022-09-30T18:46:52.080Z,1.43
2022-09-30T18:49:19.826Z,1.30
2022-09-30T18:51:49.107Z,1.27
2022-09-30T18:54:38.023Z,1.40
2022-09-30T18:57:08.364Z,1.40
2022-09-30T18:59:38.409Z,1.30
2022-09-30T19:02:23.867Z,1.40
2022-09-30T19:04:59.890Z,1.43
2022-09-30T19:07:28.863Z,1.60
2022-09-30T19:09:59.809Z,1.33
2022-09-30T19:12:28.730Z,1.50
2022-09-30T19:15:04.480Z,1.50
2022-09-30T19:17:42.494Z,1.40
2022-09-30T19:20:13.319Z,1.53
2022-09-30T19:22:43.847Z,1.40
2022-09-30T19:25:17.601Z,1.33
2022-09-30T19:27:49.493Z,1.27
2022-09-30T19:30:19.661Z,1.40
2022-09-30T19:32:57.152Z,1.30
2022-09-30T19:35:40.078Z,1.27
2022-09-30T19:38:09.311Z,1.27
2022-09-30T19:40:38.556Z,1.17
2022-09-30T19:43:08.438Z,1.23
2022-09-30T19:45:38.914Z,1.37
2022-09-30T19:48:09.384Z,1.30
2022-09-30T19:50:38.318Z,1.30
2022-09-30T19:53:28.068Z,1.43
2022-09-30T19:56:10.320Z,1.00
2022-09-30T19:58:40.355Z,1.10
2022-09-30T20:01:09.877Z,1.20
2022-09-30T20:03:46.722Z,1.57
2022-09-30T20:06:28.053Z,1.30
2022-09-30T20:09:00.310Z,0.97
2022-09-30T20:11:33.814Z,1.27
2022-09-30T20:14:27.400Z,1.50
2022-09-30T20:16:58.670Z,1.27
2022-09-30T20:19:30.407Z,1.30
2022-09-30T20:21:59.584Z,1.27
2022-09-30T20:24:29.245Z,1.17
2022-09-30T20:26:59.205Z,1.30
2022-09-30T20:29:29.253Z,1.30
2022-09-30T20:32:00.629Z,1.20
2022-09-30T20:34:37.966Z,1.40
2022-09-30T20:37:09.838Z,1.40
2022-09-30T20:39:42.553Z,1.20
2022-09-30T20:42:10.254Z,1.40
2022-09-30T20:44:38.469Z,1.60
2022-09-30T20:47:09.595Z,1.60
2022-09-30T20:49:39.535Z,1.50
2022-09-30T20:52:09.579Z,1.30
2022-09-30T20:54:40.238Z,1.47
2022-09-30T20:57:09.405Z,1.60
2022-09-30T20:59:40.391Z,1.77
2022-09-30T21:02:28.699Z,1.03
2022-09-30T21:05:08.052Z,1.10
2022-09-30T21:07:39.169Z,1.20
2022-09-30T21:10:09.389Z,1.20
2022-09-30T21:12:39.300Z,1.30
2022-09-30T21:15:18.511Z,1.10
2022-09-30T21:17:49.253Z,1.10
2022-09-30T21:20:19.037Z,1.13
2022-09-30T21:22:50.221Z,1.57
2022-09-30T21:25:25.430Z,1.40
2022-09-30T21:27:59.325Z,1.27
2022-09-30T21:30:38.332Z,1.40
2022-09-30T21:33:19.704Z,1.00
2022-09-30T21:35:56.982Z,1.27
2022-09-30T21:38:31.145Z,1.47
2022-09-30T21:41:02.857Z,1.40
2022-09-30T21:43:40.670Z,1.50
2022-09-30T21:46:10.657Z,1.13
2022-09-30T21:48:40.307Z,1.43
2022-09-30T21:51:11.228Z,1.30
2022-09-30T21:53:39.626Z,1.23
2022-09-30T21:56:18.829Z,1.50
2022-09-30T21:58:49.207Z,1.40
2022-09-30T22:01:17.927Z,1.67
2022-09-30T22:03:48.887Z,1.50
2022-09-30T22:06:25.526Z,1.63
2022-09-30T22:09:06.453Z,1.80
2022-09-30T22:11:46.161Z,1.90
2022-09-30T22:14:18.043Z,1.50
2022-09-30T22:16:49.592Z,1.43
2022-09-30T22:19:20.412Z,1.33
2022-09-30T22:21:50.200Z,1.70
2022-09-30T22:24:25.410Z,1.40
2022-09-30T22:26:58.435Z,1.53
2022-09-30T22:29:34.436Z,1.33
2022-09-30T22:32:08.051Z,2.00
2022-09-30T22:34:57.642Z,1.60
2022-09-30T22:37:47.949Z,2.00
2022-09-30T22:40:19.368Z,1.37
2022-09-30T22:42:49.601Z,1.63
2022-09-30T22:45:21.011Z,1.80
2022-09-30T22:47:49.491Z,1.43
2022-09-30T22:50:20.066Z,1.40
2022-09-30T22:52:50.506Z,1.70
2022-09-30T22:55:19.549Z,1.80
2022-09-30T22:57:49.482Z,1.57
2022-09-30T23:00:20.793Z,1.70
2022-09-30T23:02:57.964Z,1.67
2022-09-30T23:05:29.843Z,1.83
2022-09-30T23:08:07.193Z,1.50
2022-09-30T23:10:38.247Z,1.40
2022-09-30T23:13:10.107Z,1.60
2022-09-30T23:15:43.297Z,1.80
2022-09-30T23:18:19.702Z,1.50
2022-09-30T23:21:05.084Z,1.60
2022-09-30T23:23:40.211Z,2.03
2022-09-30T23:26:18.820Z,1.57
2022-09-30T23:28:50.049Z,1.83
2022-09-30T23:31:20.018Z,1.40
2022-09-30T23:33:52.743Z,1.50
2022-09-30T23:36:28.718Z,1.93
2022-09-30T23:39:04.419Z,1.80
2022-09-30T23:41:38.264Z,1.70
2022-09-30T23:44:10.066Z,1.40
2022-09-30T23:46:59.534Z,1.37
2022-09-30T23:52:19.522Z,1.70
2022-09-30T23:54:50.411Z,1.53
2022-09-30T23:57:19.393Z,1.40
2022-09-30T23:59:49.849Z,1.80
